createdAt,value
2019-02-17T00:03:41.131Z,20.23
2019-02-17T00:14:15.875Z,18.90
2019-02-17T00:19:21.461Z,18.23
2019-02-17T00:24:26.682Z,20.00
2019-02-17T00:29:32.530Z,18.73
2019-02-17T00:34:58.338Z,19.93
2019-02-17T00:40:03.992Z,18.13
2019-02-17T00:45:21.446Z,16.87
2019-02-17T00:50:26.781Z,17.77
2019-02-17T01:11:43.103Z,16.07
2019-02-17T01:16:49.157Z,16.43
2019-02-17T01:21:54.461Z,16.00
2019-02-17T01:26:59.720Z,17.60
2019-02-17T01:32:16.891Z,17.27
2019-02-17T01:37:33.378Z,17.30
2019-02-17T01:42:38.598Z,16.87
2019-02-17T01:53:24.971Z,16.17
2019-02-17T01:58:30.215Z,13.97
2019-02-17T02:03:35.798Z,15.47
2019-02-17T02:08:41.017Z,15.70
2019-02-17T02:13:46.623Z,16.60
2019-02-17T02:18:58.094Z,17.77
2019-02-17T02:24:03.363Z,16.80
2019-02-17T02:29:27.479Z,18.87
2019-02-17T02:34:51.919Z,18.90
2019-02-17T02:45:15.500Z,19.47
2019-02-17T02:55:51.074Z,17.63
2019-02-17T03:06:45.642Z,15.67
2019-02-17T03:11:50.880Z,15.80
2019-02-17T03:16:56.087Z,14.07
2019-02-17T03:22:01.393Z,13.63
2019-02-17T03:27:08.207Z,14.90
2019-02-17T03:37:30.635Z,14.47
2019-02-17T03:42:35.847Z,12.93
2019-02-17T03:47:41.100Z,14.77
2019-02-17T03:52:46.330Z,14.27
2019-02-17T03:58:05.360Z,15.07
2019-02-17T04:03:22.565Z,15.07
2019-02-17T04:08:27.784Z,16.30
2019-02-17T04:19:32.843Z,15.83
2019-02-17T04:24:57.157Z,15.63
2019-02-17T04:30:02.416Z,16.03
2019-02-17T04:35:09.252Z,15.20
2019-02-17T04:45:31.768Z,13.90
2019-02-17T04:50:37.279Z,13.63
2019-02-17T04:55:42.858Z,14.27
2019-02-17T05:00:50.035Z,13.47
2019-02-17T05:06:19.457Z,15.27
2019-02-17T05:11:24.652Z,15.70
2019-02-17T05:21:49.878Z,13.27
2019-02-17T05:26:55.211Z,14.53
2019-02-17T05:32:00.497Z,14.17
2019-02-17T05:37:05.802Z,15.30
2019-02-17T05:42:11.194Z,13.53
2019-02-17T05:47:16.543Z,14.23
2019-02-17T05:52:21.801Z,14.47
2019-02-17T05:57:27.067Z,13.93
2019-02-17T06:02:32.450Z,14.30
2019-02-17T06:07:38.315Z,14.53
2019-02-17T06:12:43.577Z,13.87
2019-02-17T06:17:48.848Z,14.17
2019-02-17T06:22:54.245Z,13.87
2019-02-17T06:27:59.928Z,14.57
2019-02-17T06:33:05.265Z,12.93
2019-02-17T06:38:10.510Z,12.43
2019-02-17T06:43:15.925Z,12.97
2019-02-17T06:48:21.251Z,13.03
2019-02-17T06:53:27.414Z,13.40
2019-02-17T06:58:32.825Z,14.00
2019-02-17T07:03:38.207Z,13.97
2019-02-17T07:08:43.590Z,13.33
2019-02-17T07:13:48.892Z,13.60
2019-02-17T07:18:54.350Z,15.63
2019-02-17T07:23:59.709Z,16.73
2019-02-17T07:29:05.124Z,16.50
2019-02-17T07:34:10.456Z,15.77
2019-02-17T07:39:15.868Z,19.33
2019-02-17T07:44:21.554Z,20.17
2019-02-17T07:49:26.831Z,25.77
2019-02-17T07:54:32.517Z,19.77
2019-02-17T07:59:38.003Z,18.73
2019-02-17T08:04:43.405Z,16.97
2019-02-17T08:09:50.884Z,16.50
2019-02-17T08:15:16.635Z,18.33
2019-02-17T08:26:18.024Z,24.53
2019-02-17T08:42:31.152Z,15.93
2019-02-17T09:04:09.706Z,16.90
2019-02-17T09:14:33.699Z,17.60
2019-02-17T09:19:39.159Z,16.07
2019-02-17T09:24:44.920Z,16.70
2019-02-17T09:30:02.017Z,16.67
2019-02-17T09:35:18.976Z,17.67
2019-02-17T09:46:01.123Z,16.80
2019-02-17T09:51:25.453Z,17.90
2019-02-17T10:07:04.378Z,16.50
2019-02-17T10:12:09.592Z,17.57
2019-02-17T10:17:14.899Z,17.40
2019-02-17T10:22:40.850Z,15.87
2019-02-17T10:27:46.044Z,17.10
2019-02-17T10:38:07.462Z,16.40
2019-02-17T10:43:18.533Z,16.77
2019-02-17T10:48:23.750Z,17.37
2019-02-17T10:59:04.722Z,16.60
2019-02-17T11:04:11.364Z,15.90
2019-02-17T11:09:36.141Z,15.60
2019-02-17T11:14:43.044Z,16.93
2019-02-17T11:20:07.653Z,15.37
2019-02-17T11:25:31.918Z,15.53
2019-02-17T11:35:54.318Z,17.80
2019-02-17T11:41:12.652Z,15.60
2019-02-17T11:46:19.220Z,24.30
2019-02-17T11:51:24.506Z,15.80
2019-02-17T11:56:29.757Z,15.63
2019-02-17T12:06:52.146Z,15.43
2019-02-17T12:11:57.690Z,14.83
2019-02-17T12:17:02.893Z,14.57
2019-02-17T12:22:27.025Z,14.20
2019-02-17T12:27:38.091Z,14.13
2019-02-17T12:32:43.477Z,15.40
2019-02-17T12:37:48.680Z,14.03
2019-02-17T12:48:11.306Z,12.83
2019-02-17T12:53:16.847Z,14.27
2019-02-17T12:58:41.041Z,13.33
2019-02-17T13:03:46.248Z,13.53
2019-02-17T13:14:08.836Z,15.87
2019-02-17T13:19:14.030Z,13.67
2019-02-17T13:29:36.245Z,16.80
2019-02-17T13:39:58.273Z,12.63
2019-02-17T13:45:22.505Z,12.50
2019-02-17T13:50:27.711Z,10.67
2019-02-17T13:55:32.938Z,11.50
2019-02-17T14:00:50.027Z,10.73
2019-02-17T14:11:25.053Z,11.93
2019-02-17T14:16:42.310Z,11.87
2019-02-17T14:21:47.504Z,10.27
2019-02-17T14:26:54.501Z,10.50
2019-02-17T14:32:19.068Z,11.00
2019-02-17T14:37:24.324Z,10.33
2019-02-17T14:42:29.517Z,11.57
2019-02-17T14:47:34.755Z,10.13
2019-02-17T14:52:40.060Z,10.13
2019-02-17T14:57:51.086Z,10.03
2019-02-17T15:02:56.313Z,10.10
2019-02-17T15:13:58.156Z,10.00
2019-02-17T15:19:22.795Z,9.13
2019-02-17T15:24:28.063Z,8.57
2019-02-17T15:29:52.275Z,9.63
2019-02-17T15:34:57.465Z,9.77
2019-02-17T15:40:02.679Z,10.23
2019-02-17T15:50:45.840Z,9.57
2019-02-17T16:01:08.587Z,9.67
2019-02-17T16:06:19.280Z,10.53
2019-02-17T16:11:24.506Z,9.67
2019-02-17T16:21:46.391Z,9.70
2019-02-17T16:26:51.886Z,9.90
2019-02-17T16:31:57.293Z,10.83
2019-02-17T16:37:03.206Z,14.27
2019-02-17T16:42:08.413Z,12.93
2019-02-17T16:47:13.647Z,11.63
2019-02-17T16:52:19.173Z,11.10
2019-02-17T17:02:41.056Z,11.70
2019-02-17T17:07:46.376Z,12.07
2019-02-17T17:13:03.365Z,12.73
2019-02-17T17:18:08.630Z,15.40
2019-02-17T17:23:32.898Z,13.70
2019-02-17T17:28:38.131Z,12.87
2019-02-17T17:33:43.386Z,11.73
2019-02-17T17:49:22.796Z,11.90
2019-02-17T17:54:28.882Z,15.80
2019-02-17T17:59:34.346Z,21.43
2019-02-17T18:04:39.738Z,13.23
2019-02-17T18:09:45.118Z,12.83
2019-02-17T18:14:57.591Z,12.67
2019-02-17T18:20:02.876Z,11.60
2019-02-17T18:25:08.551Z,11.57
2019-02-17T18:30:16.629Z,11.50
2019-02-17T18:35:46.805Z,12.47
2019-02-17T18:46:33.482Z,11.63
2019-02-17T18:57:15.078Z,11.73
2019-02-17T19:02:20.318Z,12.23
2019-02-17T19:07:44.437Z,11.77
2019-02-17T19:13:10.643Z,11.37
2019-02-17T19:18:28.053Z,11.43
2019-02-17T19:23:33.727Z,11.07
2019-02-17T19:28:39.288Z,10.10
2019-02-17T19:34:03.656Z,10.53
2019-02-17T19:44:46.186Z,11.10
2019-02-17T19:55:27.666Z,11.50
2019-02-17T20:00:33.254Z,12.40
2019-02-17T20:16:32.509Z,11.40
2019-02-17T20:21:38.093Z,11.03
2019-02-17T20:26:43.526Z,12.37
2019-02-17T20:31:48.726Z,11.57
2019-02-17T20:36:54.382Z,11.40
2019-02-17T20:42:18.970Z,12.10
2019-02-17T20:47:24.230Z,12.93
2019-02-17T20:58:13.978Z,12.00
2019-02-17T21:08:36.620Z,11.47
2019-02-17T21:13:42.238Z,11.73
2019-02-17T21:18:47.919Z,12.20
2019-02-17T21:40:57.002Z,12.57
2019-02-17T21:46:02.328Z,12.03
2019-02-17T21:51:19.658Z,12.87
2019-02-17T21:56:25.679Z,12.37
2019-02-17T22:01:31.305Z,12.03
2019-02-17T22:06:48.078Z,17.27
2019-02-17T22:17:29.509Z,16.37
2019-02-17T22:27:51.393Z,15.33
2019-02-17T22:33:20.937Z,16.77
2019-02-17T22:38:26.590Z,15.73
2019-02-17T22:43:31.781Z,15.13
2019-02-17T22:54:13.417Z,18.60
2019-02-17T23:15:28.637Z,15.37
2019-02-17T23:20:33.836Z,15.17
2019-02-17T23:30:55.686Z,14.40
2019-02-17T23:36:01.254Z,14.47
2019-02-17T23:41:17.994Z,14.50
2019-02-17T23:46:23.229Z,13.90
2019-02-17T23:51:34.208Z,14.27
2019-02-17T23:56:39.781Z,14.93
